Time;durP1;ratioP1;P1;durP2;ratioP2;P2;SDS_P1;SDS_P2;PMS_P1;PMS_P2;Temp;Humidity;BMP_temperature;BMP_pressure;BME280_temperature;BME280_humidity;BME280_pressure;Samples;Min_cycle;Max_cycle;Signal;HPM_P1;HPM_P2
2023/05/14 00:01:29;;;;;;;8.98;2.95;;;14.20;99.90;;;;;;4954625;28;20055;-76
2023/05/14 00:03:57;;;;;;;8.30;3.58;;;14.20;99.90;;;;;;4953647;28;20177;-78
2023/05/14 00:06:24;;;;;;;6.47;3.33;;;14.20;99.90;;;;;;4953379;28;20207;-76
2023/05/14 00:08:51;;;;;;;6.85;2.80;;;14.20;99.90;;;;;;4951746;28;20150;-77
2023/05/14 00:11:20;;;;;;;4.65;2.67;;;14.30;99.90;;;;;;4953958;28;20082;-76
2023/05/14 00:13:47;;;;;;;13.95;3.55;;;14.20;99.90;;;;;;4952407;28;20062;-77
2023/05/14 00:16:14;;;;;;;10.93;3.50;;;14.20;99.90;;;;;;4935837;29;20505;-77
2023/05/14 00:18:42;;;;;;;11.40;4.15;;;14.20;99.90;;;;;;4951973;28;20047;-78
2023/05/14 00:21:09;;;;;;;10.30;3.80;;;14.20;99.90;;;;;;4948717;28;20057;-76
2023/05/14 00:23:36;;;;;;;7.43;3.63;;;14.20;99.90;;;;;;4934482;29;20134;-76
2023/05/14 00:26:04;;;;;;;11.50;3.90;;;14.20;99.90;;;;;;4965035;28;20206;-77
2023/05/14 00:28:34;;;;;;;11.63;3.40;;;14.20;99.90;;;;;;4951914;28;20130;-77
2023/05/14 00:31:01;;;;;;;5.85;3.35;;;14.20;99.90;;;;;;4953891;28;20408;-77
2023/05/14 00:33:29;;;;;;;9.60;3.45;;;14.20;99.90;;;;;;4953397;28;20102;-71
2023/05/14 00:35:56;;;;;;;9.40;3.70;;;14.20;99.90;;;;;;4951097;28;20050;-71
2023/05/14 00:38:26;;;;;;;7.38;3.20;;;14.20;99.90;;;;;;4953384;28;20051;-71
2023/05/14 00:40:53;;;;;;;9.20;3.53;;;14.20;99.90;;;;;;4953465;28;20130;-72
2023/05/14 00:43:21;;;;;;;8.82;3.22;;;14.20;99.90;;;;;;4951262;28;20039;-72
2023/05/14 00:45:53;;;;;;;7.90;3.00;;;14.20;99.90;;;;;;4947989;28;20056;-72
2023/05/14 00:48:21;;;;;;;9.68;2.58;;;14.20;99.90;;;;;;4949082;29;20059;-72
2023/05/14 00:50:50;;;;;;;10.00;2.60;;;14.10;99.90;;;;;;4940209;29;20047;-71
2023/05/14 00:53:18;;;;;;;4.30;3.17;;;14.10;99.90;;;;;;4952673;29;20059;-72
2023/05/14 00:55:46;;;;;;;6.47;2.25;;;14.10;99.90;;;;;;4967157;28;20415;-71
2023/05/14 00:58:14;;;;;;;5.88;2.45;;;14.10;99.90;;;;;;4951777;29;20592;-71
2023/05/14 01:00:42;;;;;;;3.25;2.17;;;14.10;99.90;;;;;;4951998;28;20062;-71
2023/05/14 01:03:10;;;;;;;4.03;2.67;;;14.10;99.90;;;;;;4946548;28;20047;-71
2023/05/14 01:05:46;;;;;;;3.78;1.92;;;14.10;99.90;;;;;;4949109;28;20047;-71
2023/05/14 01:08:22;;;;;;;5.43;2.72;;;14.10;99.90;;;;;;4937969;29;20051;-71
2023/05/14 01:10:52;;;;;;;3.78;1.65;;;14.10;99.90;;;;;;4953850;28;20047;-71
2023/05/14 01:13:27;;;;;;;4.10;1.73;;;14.10;99.90;;;;;;4952120;28;20512;-70
2023/05/14 01:15:57;;;;;;;2.85;1.63;;;14.10;99.90;;;;;;4941085;29;20051;-71
2023/05/14 01:18:27;;;;;;;7.32;1.80;;;14.10;99.90;;;;;;4967824;28;20508;-71
2023/05/14 01:20:55;;;;;;;2.53;1.77;;;14.10;99.90;;;;;;4951069;28;20127;-71
2023/05/14 01:23:24;;;;;;;5.70;1.60;;;14.00;99.90;;;;;;4952796;28;20086;-71
2023/05/14 01:25:52;;;;;;;4.30;2.17;;;14.00;99.90;;;;;;4947816;28;20055;-71
2023/05/14 01:28:21;;;;;;;3.05;1.98;;;14.00;99.90;;;;;;4952260;28;20043;-70
2023/05/14 01:30:53;;;;;;;5.00;1.90;;;14.10;99.90;;;;;;4947529;28;20052;-70
2023/05/14 01:33:24;;;;;;;2.50;1.83;;;14.10;99.90;;;;;;4933544;29;20051;-72
2023/05/14 01:35:54;;;;;;;;;;;14.10;99.90;;;;;;4936354;29;20487;-71
2023/05/14 01:38:23;;;;;;;5.80;1.85;;;14.00;99.90;;;;;;4947228;28;20241;-71
2023/05/14 01:40:53;;;;;;;2.67;2.08;;;14.00;99.90;;;;;;4952011;28;20428;-72
2023/05/14 01:43:21;;;;;;;3.28;1.90;;;14.00;99.90;;;;;;4951415;29;20051;-71
2023/05/14 01:45:49;;;;;;;4.72;2.03;;;13.90;99.90;;;;;;4967456;28;20078;-71
2023/05/14 01:48:16;;;;;;;8.27;2.15;;;13.90;99.90;;;;;;4953889;28;20142;-71
2023/05/14 01:50:43;;;;;;;6.38;2.38;;;13.80;99.90;;;;;;4948052;28;20059;-71
2023/05/14 01:53:10;;;;;;;5.47;2.55;;;13.80;99.90;;;;;;4948223;29;20402;-71
2023/05/14 01:55:38;;;;;;;5.00;2.47;;;13.80;99.90;;;;;;4954495;28;20078;-71
2023/05/14 01:58:06;;;;;;;3.40;2.13;;;13.80;99.90;;;;;;4961761;28;20086;-71
2023/05/14 02:00:34;;;;;;;4.70;2.60;;;13.70;99.90;;;;;;4951758;28;20142;-71
2023/05/14 02:03:01;;;;;;;7.65;2.50;;;13.70;99.90;;;;;;4936763;29;20055;-71
2023/05/14 02:05:28;;;;;;;3.67;2.38;;;13.70;99.90;;;;;;4946063;28;20085;-71
2023/05/14 02:07:56;;;;;;;4.38;1.98;;;13.80;99.90;;;;;;4955230;28;20142;-71
2023/05/14 02:10:23;;;;;;;2.55;2.20;;;13.80;99.90;;;;;;4956070;28;20054;-71
2023/05/14 02:12:52;;;;;;;11.00;2.63;;;13.90;99.90;;;;;;4956423;28;20489;-71
2023/05/14 02:15:21;;;;;;;4.80;2.40;;;13.90;99.90;;;;;;4954463;28;20048;-72
2023/05/14 02:17:49;;;;;;;3.33;2.60;;;13.90;99.90;;;;;;4955679;28;20058;-71
2023/05/14 02:20:16;;;;;;;6.82;2.55;;;14.00;99.90;;;;;;4955810;28;20062;-72
2023/05/14 02:22:50;;;;;;;9.90;2.53;;;14.00;99.90;;;;;;4955667;28;20051;-72
2023/05/14 02:25:18;;;;;;;5.97;3.40;;;14.00;99.90;;;;;;4937514;28;20058;-72
2023/05/14 02:27:45;;;;;;;5.05;3.00;;;14.00;99.90;;;;;;4970533;28;20047;-72
2023/05/14 02:30:13;;;;;;;10.05;3.30;;;14.00;99.90;;;;;;4949046;28;20126;-71
2023/05/14 02:32:42;;;;;;;6.65;3.30;;;14.00;99.90;;;;;;4929599;29;20051;-72
2023/05/14 02:35:10;;;;;;;4.90;3.10;;;14.00;99.90;;;;;;4954630;28;20048;-72
2023/05/14 02:37:38;;;;;;;6.68;3.70;;;14.10;99.90;;;;;;4955269;28;20055;-72
2023/05/14 02:40:06;;;;;;;4.32;3.33;;;14.10;99.90;;;;;;4954239;28;20484;-77
2023/05/14 02:42:34;;;;;;;9.23;3.72;;;14.00;99.90;;;;;;4950968;28;20050;-72
2023/05/14 02:45:01;;;;;;;5.47;4.15;;;14.10;99.90;;;;;;4955300;28;20054;-72
2023/05/14 02:47:33;;;;;;;6.22;3.65;;;14.10;99.90;;;;;;4955463;28;20051;-72
2023/05/14 02:50:05;;;;;;;15.45;3.42;;;14.10;99.90;;;;;;4953713;29;20055;-72
2023/05/14 02:52:33;;;;;;;7.22;3.60;;;14.20;99.90;;;;;;4956155;28;20134;-73
2023/05/14 02:55:00;;;;;;;4.82;3.83;;;14.10;99.90;;;;;;4937619;29;20444;-73
2023/05/14 02:57:28;;;;;;;8.80;3.50;;;14.10;99.90;;;;;;4950722;29;20083;-78
2023/05/14 02:59:55;;;;;;;9.52;3.78;;;14.10;99.90;;;;;;4953031;28;20377;-72
2023/05/14 03:02:22;;;;;;;6.00;3.55;;;14.10;99.90;;;;;;4949545;28;20051;-72
2023/05/14 03:04:49;;;;;;;6.88;3.53;;;14.10;99.90;;;;;;4950853;29;20051;-71
2023/05/14 03:07:18;;;;;;;9.88;3.50;;;14.20;99.90;;;;;;4952944;28;20047;-77
2023/05/14 03:09:45;;;;;;;10.07;3.88;;;14.20;99.90;;;;;;4953470;28;20507;-76
2023/05/14 03:12:13;;;;;;;12.80;4.68;;;14.20;99.90;;;;;;4933304;29;20591;-76
2023/05/14 03:14:40;;;;;;;7.70;4.70;;;14.30;99.90;;;;;;4934968;29;20056;-77
2023/05/14 03:17:08;;;;;;;9.43;3.83;;;14.30;99.90;;;;;;4966521;28;20325;-75
2023/05/14 03:19:35;;;;;;;5.18;4.07;;;14.40;99.90;;;;;;4953575;28;20118;-77
2023/05/14 03:22:02;;;;;;;8.98;4.05;;;14.50;99.90;;;;;;4950447;28;20102;-77
2023/05/14 03:24:31;;;;;;;5.93;4.50;;;14.60;99.90;;;;;;4950592;28;20062;-77
2023/05/14 03:26:59;;;;;;;4.72;3.97;;;14.70;99.90;;;;;;4945073;29;20047;-76
2023/05/14 03:29:26;;;;;;;5.75;3.80;;;14.80;99.90;;;;;;4953013;28;20054;-71
2023/05/14 03:31:53;;;;;;;9.88;4.68;;;14.90;99.90;;;;;;4950347;28;20431;-71
2023/05/14 03:34:21;;;;;;;8.90;4.38;;;15.00;99.90;;;;;;4950281;28;20056;-71
2023/05/14 03:36:48;;;;;;;6.45;3.95;;;15.10;99.90;;;;;;4960402;28;20409;-71
2023/05/14 03:39:18;;;;;;;8.35;3.95;;;15.10;99.90;;;;;;4954592;28;20094;-71
2023/05/14 03:41:47;;;;;;;10.65;4.65;;;15.20;99.90;;;;;;4954212;28;20469;-71
2023/05/14 03:44:15;;;;;;;9.23;4.25;;;15.20;99.90;;;;;;4969424;28;20070;-71
2023/05/14 03:46:42;;;;;;;8.63;4.50;;;15.40;99.90;;;;;;4967149;28;20401;-76
2023/05/14 03:49:10;;;;;;;8.68;4.22;;;15.50;99.90;;;;;;4953048;29;20058;-77
2023/05/14 03:51:38;;;;;;;7.68;4.10;;;15.50;99.90;;;;;;4933743;29;20059;-76
2023/05/14 03:54:06;;;;;;;8.75;4.80;;;15.50;99.90;;;;;;4939710;29;20503;-76
2023/05/14 03:56:34;;;;;;;12.68;4.72;;;15.50;99.90;;;;;;4953503;28;20055;-77
2023/05/14 03:59:02;;;;;;;11.60;4.82;;;15.40;99.90;;;;;;4954348;28;20133;-76
2023/05/14 04:01:30;;;;;;;6.55;3.90;;;15.40;99.90;;;;;;4952499;29;20087;-76
2023/05/14 04:03:58;;;;;;;10.07;3.65;;;15.50;99.90;;;;;;4953421;28;20393;-76
2023/05/14 04:06:25;;;;;;;6.93;3.70;;;15.60;99.90;;;;;;4964962;28;20051;-76
2023/05/14 04:08:52;;;;;;;10.80;3.60;;;15.60;99.90;;;;;;4972351;28;20409;-76
2023/05/14 04:11:20;;;;;;;6.03;3.20;;;15.70;99.90;;;;;;4955822;28;20069;-77
2023/05/14 04:13:49;;;;;;;4.80;3.47;;;15.90;99.90;;;;;;4951532;28;20058;-76
2023/05/14 04:16:18;;;;;;;6.78;3.25;;;15.90;99.90;;;;;;4949331;29;20130;-76
2023/05/14 04:18:45;;;;;;;7.85;2.95;;;16.00;99.90;;;;;;4935992;29;20539;-77
2023/05/14 04:21:13;;;;;;;11.40;3.30;;;16.00;99.90;;;;;;4948278;29;20197;-76
2023/05/14 04:23:40;;;;;;;7.88;3.60;;;15.90;99.40;;;;;;4948748;28;20063;-77
2023/05/14 04:26:07;;;;;;;5.65;3.08;;;15.90;99.90;;;;;;4948373;29;20436;-75
2023/05/14 04:28:34;;;;;;;5.75;2.92;;;15.80;99.90;;;;;;4951271;29;20051;-77
2023/05/14 04:31:02;;;;;;;5.63;3.30;;;15.80;99.90;;;;;;4947489;28;20059;-76
2023/05/14 04:33:31;;;;;;;5.80;2.67;;;15.80;99.90;;;;;;4951994;29;20419;-76
2023/05/14 04:35:58;;;;;;;8.80;2.35;;;15.90;99.50;;;;;;4951896;28;20051;-76
2023/05/14 04:38:26;;;;;;;4.45;2.80;;;16.00;98.70;;;;;;4952605;28;20424;-76
2023/05/14 04:40:53;;;;;;;7.20;2.30;;;15.90;98.20;;;;;;4951196;29;20059;-76
2023/05/14 04:43:23;;;;;;;7.55;2.88;;;15.90;98.50;;;;;;4953607;28;20098;-77
2023/05/14 04:45:51;;;;;;;4.95;2.45;;;15.90;98.90;;;;;;4947661;29;20638;-76
2023/05/14 04:48:18;;;;;;;9.20;3.05;;;15.90;99.00;;;;;;4951067;28;20468;-76
2023/05/14 04:50:47;;;;;;;3.58;2.22;;;16.00;98.10;;;;;;4950343;29;20047;-76
2023/05/14 04:53:14;;;;;;;3.63;1.80;;;16.00;98.00;;;;;;4950951;28;20105;-76
2023/05/14 04:55:41;;;;;;;3.60;1.73;;;16.10;96.30;;;;;;4940999;28;20055;-75
2023/05/14 04:58:08;;;;;;;7.28;3.55;;;16.20;95.70;;;;;;4964151;28;20309;-76
2023/05/14 05:00:36;;;;;;;7.47;1.90;;;16.30;95.70;;;;;;4952831;28;20094;-78
2023/05/14 05:03:03;;;;;;;7.18;2.13;;;16.30;95.90;;;;;;4951665;28;20047;-78
2023/05/14 05:05:30;;;;;;;3.72;2.50;;;16.50;95.90;;;;;;4951366;29;20500;-75
2023/05/14 05:07:59;;;;;;;9.02;2.63;;;16.80;95.90;;;;;;4947202;29;20123;-78
2023/05/14 05:10:27;;;;;;;8.68;2.97;;;17.00;94.80;;;;;;4945107;28;20118;-76
2023/05/14 05:12:54;;;;;;;8.60;3.28;;;17.10;94.90;;;;;;4944502;29;20519;-72
2023/05/14 05:15:21;;;;;;;4.15;2.55;;;17.20;94.60;;;;;;4951125;28;20043;-72
2023/05/14 05:17:48;;;;;;;8.25;2.72;;;17.40;95.00;;;;;;4950282;29;20501;-72
2023/05/14 05:20:16;;;;;;;5.43;3.03;;;17.80;94.10;;;;;;4951570;28;20531;-72
2023/05/14 05:22:43;;;;;;;6.20;3.10;;;18.10;92.10;;;;;;4948471;29;20042;-71
2023/05/14 05:25:11;;;;;;;3.95;3.55;;;18.50;90.80;;;;;;4937788;28;20043;-71
2023/05/14 05:27:39;;;;;;;5.75;3.15;;;19.00;89.80;;;;;;4945973;28;20064;-71
2023/05/14 05:30:08;;;;;;;7.30;3.25;;;19.60;86.90;;;;;;4949974;28;20043;-71
2023/05/14 05:32:35;;;;;;;3.88;2.00;;;20.00;83.00;;;;;;4953598;28;20078;-73
2023/05/14 05:35:03;;;;;;;2.80;2.40;;;19.90;80.80;;;;;;4951045;28;20138;-73
2023/05/14 05:37:31;;;;;;;2.53;2.33;;;20.00;79.30;;;;;;4954965;28;20637;-72
2023/05/14 05:39:58;;;;;;;4.82;2.40;;;20.20;77.50;;;;;;4943411;28;20047;-72
2023/05/14 05:42:27;;;;;;;5.10;2.10;;;20.20;78.20;;;;;;4951354;28;20062;-74
2023/05/14 05:44:55;;;;;;;5.53;2.30;;;20.20;75.50;;;;;;4953557;29;20044;-75
2023/05/14 05:47:22;;;;;;;3.88;3.53;;;20.00;76.00;;;;;;4954860;28;20053;-72
2023/05/14 05:49:50;;;;;;;5.50;2.40;;;20.30;76.80;;;;;;4947502;29;20094;-73
2023/05/14 05:52:17;;;;;;;4.82;2.28;;;20.60;75.60;;;;;;4949138;29;20445;-74
2023/05/14 05:54:44;;;;;;;3.88;2.10;;;20.90;72.30;;;;;;4950893;28;20154;-74
2023/05/14 05:57:12;;;;;;;4.95;2.63;;;20.80;71.30;;;;;;4946300;28;20043;-75
2023/05/14 05:59:41;;;;;;;5.05;2.47;;;20.50;71.60;;;;;;4949329;29;20051;-74
2023/05/14 06:02:09;;;;;;;10.98;2.70;;;20.00;72.50;;;;;;4945318;29;20830;-71
2023/05/14 06:04:36;;;;;;;4.25;2.53;;;19.60;73.60;;;;;;4950704;29;20102;-77
2023/05/14 06:07:04;;;;;;;10.30;2.90;;;19.30;75.50;;;;;;4937379;29;20050;-76
2023/05/14 06:09:31;;;;;;;5.57;2.50;;;19.10;76.50;;;;;;4952953;28;20050;-72
2023/05/14 06:11:59;;;;;;;3.80;2.13;;;18.80;77.10;;;;;;4949846;28;20047;-76
2023/05/14 06:14:26;;;;;;;7.00;1.77;;;18.70;77.00;;;;;;4947439;28;20055;-76
2023/05/14 06:16:54;;;;;;;5.20;1.88;;;18.90;76.90;;;;;;4947607;28;20050;-76
2023/05/14 06:19:23;;;;;;;2.92;1.77;;;19.40;76.40;;;;;;4946170;29;20098;-75
2023/05/14 06:21:50;;;;;;;7.15;2.13;;;19.60;74.70;;;;;;4963086;28;20051;-77
2023/05/14 06:24:18;;;;;;;2.70;1.75;;;19.60;74.90;;;;;;4944466;29;20051;-72
2023/05/14 06:26:47;;;;;;;6.05;1.73;;;19.50;74.00;;;;;;4963089;28;20134;-77
2023/05/14 06:29:14;;;;;;;4.57;1.95;;;19.30;74.20;;;;;;4944506;29;20118;-75
2023/05/14 06:31:45;;;;;;;5.43;2.08;;;19.20;74.30;;;;;;4946370;28;20071;-72
2023/05/14 06:34:14;;;;;;;5.78;1.67;;;18.90;74.10;;;;;;4947297;29;20043;-72
2023/05/14 06:36:41;;;;;;;4.05;1.73;;;18.80;75.10;;;;;;4944479;28;20054;-73
2023/05/14 06:39:09;;;;;;;8.65;2.30;;;18.70;75.70;;;;;;4947323;29;20066;-72
2023/05/14 06:41:36;;;;;;;3.22;2.00;;;18.60;76.30;;;;;;4946262;28;20047;-73
2023/05/14 06:44:04;;;;;;;7.50;2.10;;;18.50;76.50;;;;;;4942162;29;20050;-77
2023/05/14 06:46:31;;;;;;;6.15;2.10;;;18.50;76.90;;;;;;4953758;28;20058;-77
2023/05/14 06:48:59;;;;;;;6.20;2.20;;;18.30;77.10;;;;;;4957743;28;20055;-74
2023/05/14 06:51:28;;;;;;;8.57;2.30;;;18.30;77.50;;;;;;4953095;28;20051;-77
2023/05/14 06:54:01;;;;;;;7.70;2.25;;;18.30;77.80;;;;;;4934130;29;20051;-76
2023/05/14 06:56:36;;;;;;;5.93;2.00;;;18.50;78.50;;;;;;4942808;28;20051;-76
2023/05/14 06:59:03;;;;;;;3.97;1.85;;;18.90;78.40;;;;;;4949167;28;20433;-75
2023/05/14 07:01:31;;;;;;;5.95;2.17;;;20.20;76.60;;;;;;4942153;28;20056;-76
2023/05/14 07:03:58;;;;;;;8.82;2.47;;;21.40;71.50;;;;;;4947074;28;20149;-75
2023/05/14 07:06:27;;;;;;;4.70;2.28;;;22.00;68.10;;;;;;4942516;28;20078;-71
2023/05/14 07:08:54;;;;;;;3.38;1.83;;;22.10;66.50;;;;;;4939990;28;20051;-74
2023/05/14 07:11:22;;;;;;;7.45;2.20;;;22.10;66.10;;;;;;4944352;28;20047;-74
2023/05/14 07:13:50;;;;;;;7.30;2.00;;;22.00;67.40;;;;;;4950448;28;20055;-74
2023/05/14 07:16:18;;;;;;;2.17;1.50;;;21.70;68.30;;;;;;4953576;28;20057;-72
2023/05/14 07:18:45;;;;;;;4.72;2.08;;;21.50;68.10;;;;;;4954402;28;20055;-68
2023/05/14 07:21:12;;;;;;;5.90;1.55;;;21.40;68.60;;;;;;4953871;28;20583;-68
2023/05/14 07:23:41;;;;;;;5.35;2.20;;;21.40;70.20;;;;;;4952155;28;20066;-71
2023/05/14 07:26:09;;;;;;;3.35;1.60;;;21.40;68.80;;;;;;4954315;28;20054;-73
2023/05/14 07:28:36;;;;;;;5.15;1.88;;;21.40;68.10;;;;;;4953842;28;20047;-72
2023/05/14 07:31:07;;;;;;;3.95;1.70;;;21.40;69.00;;;;;;4950395;29;20051;-72
2023/05/14 07:33:35;;;;;;;7.63;1.90;;;21.50;68.80;;;;;;4948544;28;20122;-72
2023/05/14 07:36:02;;;;;;;7.10;2.35;;;21.60;68.60;;;;;;4954256;28;20043;-72
2023/05/14 07:38:30;;;;;;;11.35;2.40;;;21.50;69.40;;;;;;4956503;28;20073;-72
2023/05/14 07:40:58;;;;;;;4.20;1.65;;;21.40;68.80;;;;;;4950261;28;20516;-72
2023/05/14 07:43:26;;;;;;;5.57;1.65;;;21.10;67.40;;;;;;4934890;28;20077;-71
2023/05/14 07:45:54;;;;;;;5.38;1.70;;;20.80;68.30;;;;;;4940991;28;20114;-69
2023/05/14 07:48:21;;;;;;;5.05;1.90;;;20.80;69.70;;;;;;4944343;29;20058;-69
2023/05/14 07:50:48;;;;;;;9.10;2.03;;;20.70;67.50;;;;;;4952756;28;20066;-70
2023/05/14 07:53:17;;;;;;;6.97;1.83;;;20.50;68.10;;;;;;4938244;28;20057;-69
2023/05/14 07:55:46;;;;;;;5.35;1.52;;;20.40;69.10;;;;;;4944387;28;20053;-72
2023/05/14 07:58:16;;;;;;;6.85;1.70;;;20.40;70.60;;;;;;4941408;28;20428;-69
2023/05/14 08:00:43;;;;;;;4.82;1.55;;;20.30;69.10;;;;;;4948991;28;20440;-69
2023/05/14 08:03:10;;;;;;;5.68;2.13;;;20.20;68.00;;;;;;4938956;29;20060;-69
2023/05/14 08:05:37;;;;;;;4.68;1.55;;;20.20;67.90;;;;;;4938828;29;20381;-70
2023/05/14 08:08:05;;;;;;;3.92;1.40;;;20.30;69.10;;;;;;4945190;28;20052;-70
2023/05/14 08:10:32;;;;;;;4.40;1.50;;;20.40;68.30;;;;;;4936479;28;20046;-70
2023/05/14 08:13:00;;;;;;;6.85;2.20;;;20.50;68.30;;;;;;4939414;29;20624;-69
2023/05/14 08:15:28;;;;;;;4.93;1.45;;;20.40;67.50;;;;;;4965974;28;20043;-70
2023/05/14 08:17:57;;;;;;;5.10;1.75;;;20.30;69.50;;;;;;4948018;29;20079;-71
2023/05/14 08:20:24;;;;;;;7.25;1.77;;;20.30;71.00;;;;;;4951992;28;20058;-70
2023/05/14 08:22:52;;;;;;;5.60;1.60;;;20.30;69.00;;;;;;4943928;29;20600;-71
2023/05/14 08:25:19;;;;;;;4.80;1.95;;;20.10;68.70;;;;;;4948615;28;20516;-71
2023/05/14 08:27:47;;;;;;;5.88;2.20;;;20.10;69.80;;;;;;4949855;29;20055;-71
2023/05/14 08:30:14;;;;;;;4.93;1.67;;;20.20;69.80;;;;;;4941100;28;20075;-70
2023/05/14 08:32:43;;;;;;;5.20;2.10;;;20.30;70.50;;;;;;4944064;28;20057;-71
2023/05/14 08:35:13;;;;;;;4.03;1.35;;;20.50;67.80;;;;;;4944801;29;20134;-75
2023/05/14 08:37:40;;;;;;;6.40;2.17;;;20.60;67.00;;;;;;4947824;28;20190;-73
2023/05/14 08:40:09;;;;;;;5.82;2.13;;;20.70;67.60;;;;;;4947274;29;20667;-71
2023/05/14 08:42:40;;;;;;;5.72;1.73;;;20.90;65.60;;;;;;4949146;28;20051;-72
2023/05/14 08:45:16;;;;;;;5.88;2.50;;;21.00;65.00;;;;;;4948525;28;20050;-71
2023/05/14 08:47:48;;;;;;;6.28;2.00;;;21.80;64.70;;;;;;4946792;29;20051;-72
2023/05/14 08:50:16;;;;;;;6.20;1.90;;;22.80;62.30;;;;;;4946162;28;20066;-73
2023/05/14 08:52:43;;;;;;;3.97;2.20;;;23.40;59.70;;;;;;4942734;29;20424;-71
2023/05/14 08:55:12;;;;;;;10.35;2.60;;;23.80;59.40;;;;;;4949842;28;20134;-71
2023/05/14 08:57:39;;;;;;;5.53;1.55;;;24.00;58.80;;;;;;4951470;28;20110;-70
2023/05/14 09:00:11;;;;;;;6.18;1.73;;;23.90;57.90;;;;;;4941828;28;20421;-70
2023/05/14 09:02:40;;;;;;;2.20;1.40;;;24.50;58.60;;;;;;4941000;29;20059;-69
2023/05/14 09:05:10;;;;;;;9.02;1.38;;;25.30;56.80;;;;;;4949621;28;20098;-71
2023/05/14 09:07:37;;;;;;;3.40;1.40;;;25.60;56.00;;;;;;4951669;28;20093;-70
2023/05/14 09:10:05;;;;;;;17.73;2.00;;;25.40;56.00;;;;;;4946044;28;20071;-71
2023/05/14 09:12:36;;;;;;;6.28;1.65;;;25.60;54.40;;;;;;4946786;29;20047;-69
2023/05/14 09:15:04;;;;;;;7.22;1.10;;;26.80;54.80;;;;;;4951287;28;20135;-75
2023/05/14 09:17:34;;;;;;;6.28;1.15;;;28.20;52.10;;;;;;4948941;28;20125;-81
2023/05/14 09:20:05;;;;;;;9.73;1.30;;;29.60;47.70;;;;;;4941458;28;20056;-85
2023/05/14 09:22:38;;;;;;;3.53;1.35;;;30.50;46.20;;;;;;4944892;29;20058;-78
2023/05/14 09:25:08;;;;;;;4.03;1.50;;;31.10;44.50;;;;;;4938463;29;20099;-78
2023/05/14 09:27:36;;;;;;;5.10;1.50;;;31.40;43.80;;;;;;4945261;29;20055;-78
2023/05/14 09:30:09;;;;;;;6.68;3.92;;;31.80;43.20;;;;;;4950233;28;20048;-78
2023/05/14 09:32:38;;;;;;;7.05;1.83;;;32.00;43.10;;;;;;4947680;29;20539;-78
2023/05/14 09:35:13;;;;;;;3.13;1.73;;;32.10;42.50;;;;;;4947365;29;20051;-79
2023/05/14 09:37:43;;;;;;;6.50;1.80;;;31.50;41.40;;;;;;4944339;28;20106;-78
2023/05/14 09:40:13;;;;;;;4.95;1.88;;;30.90;43.30;;;;;;4951228;28;20529;-79
2023/05/14 09:42:40;;;;;;;3.42;2.20;;;31.40;44.00;;;;;;4942061;29;20631;-78
2023/05/14 09:45:08;;;;;;;4.82;1.70;;;32.30;43.40;;;;;;4952146;28;20508;-72
2023/05/14 09:47:36;;;;;;;4.97;1.52;;;32.80;40.70;;;;;;4945941;29;20390;-72
2023/05/14 09:50:03;;;;;;;3.63;2.00;;;33.20;40.20;;;;;;4949136;28;20152;-78
2023/05/14 09:52:32;;;;;;;6.43;2.00;;;33.50;39.20;;;;;;4943546;28;20051;-84
2023/05/14 09:55:01;;;;;;;7.80;2.85;;;33.30;39.10;;;;;;4947483;28;20047;-74
2023/05/14 09:57:29;;;;;;;3.58;2.50;;;33.60;38.70;;;;;;4944693;28;20052;-72
2023/05/14 09:59:56;;;;;;;2.38;1.33;;;33.60;38.70;;;;;;4941419;29;20118;-72
2023/05/14 10:02:26;;;;;;;7.18;1.20;;;33.90;39.10;;;;;;4943289;29;20480;-72
2023/05/14 10:04:56;;;;;;;2.00;0.98;;;34.40;38.10;;;;;;4939736;28;20090;-75
2023/05/14 10:07:30;;;;;;;2.00;1.10;;;34.90;37.70;;;;;;4947151;29;20177;-75
2023/05/14 10:10:02;;;;;;;2.60;1.20;;;35.10;36.50;;;;;;4941402;28;20055;-72
2023/05/14 10:12:34;;;;;;;3.28;1.40;;;35.00;36.40;;;;;;4947637;29;20047;-74
2023/05/14 10:15:09;;;;;;;4.15;1.90;;;34.70;37.60;;;;;;4943312;29;20048;-74
2023/05/14 10:17:44;;;;;;;3.67;1.83;;;34.60;36.70;;;;;;4943826;28;20039;-78
2023/05/14 10:20:14;;;;;;;2.10;1.15;;;34.00;37.10;;;;;;4950806;28;20113;-77
2023/05/14 10:22:42;;;;;;;1.92;1.38;;;32.80;38.30;;;;;;4946044;29;20066;-78
2023/05/14 10:25:11;;;;;;;2.38;1.80;;;31.50;39.10;;;;;;4943819;29;20043;-77
2023/05/14 10:27:39;;;;;;;4.15;3.00;;;30.60;39.60;;;;;;4950051;28;20539;-78
2023/05/14 10:30:14;;;;;;;5.43;1.02;;;30.10;41.10;;;;;;4951616;28;20047;-74
2023/05/14 10:32:53;;;;;;;1.15;0.80;;;29.70;40.10;;;;;;4932830;29;20407;-78
2023/05/14 10:35:26;;;;;;;1.55;0.82;;;29.30;40.80;;;;;;4933750;29;20120;-73
2023/05/14 10:37:59;;;;;;;1.10;0.85;;;28.80;41.30;;;;;;4952916;28;20527;-75
2023/05/14 10:40:28;;;;;;;5.95;1.10;;;28.50;41.90;;;;;;4954711;28;20055;-73
2023/05/14 10:42:59;;;;;;;3.20;1.20;;;28.00;43.00;;;;;;4945538;28;20140;-74
2023/05/14 10:45:33;;;;;;;3.97;1.40;;;27.60;42.70;;;;;;4945038;28;20071;-72
2023/05/14 10:48:02;;;;;;;9.02;1.33;;;27.20;43.40;;;;;;4961578;28;20043;-74
2023/05/14 10:50:30;;;;;;;1.70;1.00;;;27.10;44.50;;;;;;4953253;28;20066;-77
2023/05/14 10:52:58;;;;;;;3.75;0.85;;;28.40;44.20;;;;;;4952838;28;20087;-77
2023/05/14 10:55:34;;;;;;;1.70;1.38;;;29.30;43.30;;;;;;4934654;29;20137;-73
2023/05/14 10:58:05;;;;;;;2.90;1.67;;;29.90;40.90;;;;;;4952631;29;20055;-79
2023/05/14 11:00:34;;;;;;;1.15;1.05;;;29.50;40.30;;;;;;4948759;28;20062;-74
2023/05/14 11:03:04;;;;;;;2.30;1.10;;;28.90;40.50;;;;;;4949854;28;20063;-73
2023/05/14 11:05:32;;;;;;;2.78;0.73;;;28.10;41.30;;;;;;4948614;28;20040;-74
2023/05/14 11:08:02;;;;;;;6.18;1.42;;;27.40;42.40;;;;;;4940393;29;20492;-80
2023/05/14 11:10:31;;;;;;;3.55;1.02;;;27.30;42.70;;;;;;4952301;28;20094;-77
2023/05/14 11:12:59;;;;;;;4.82;1.27;;;27.40;42.70;;;;;;4948146;28;20051;-80
2023/05/14 11:15:31;;;;;;;2.55;0.98;;;27.70;42.40;;;;;;4938881;28;20048;-80
2023/05/14 11:18:01;;;;;;;2.22;1.27;;;28.50;42.00;;;;;;4923292;29;20062;-79
2023/05/14 11:20:31;;;;;;;3.45;1.25;;;28.80;42.00;;;;;;4949704;28;20784;-79
2023/05/14 11:22:59;;;;;;;1.75;1.20;;;30.20;41.50;;;;;;4947007;28;20055;-73
2023/05/14 11:25:26;;;;;;;3.90;1.05;;;31.70;40.20;;;;;;4942018;28;20138;-73
2023/05/14 11:27:57;;;;;;;2.92;1.30;;;32.90;38.90;;;;;;4947897;28;20059;-72
2023/05/14 11:30:24;;;;;;;2.20;1.20;;;34.00;37.80;;;;;;4945947;28;20534;-73
2023/05/14 11:32:53;;;;;;;1.25;1.10;;;34.00;36.20;;;;;;4948009;28;20319;-74
2023/05/14 11:35:20;;;;;;;3.75;1.17;;;32.90;37.50;;;;;;4947867;28;20046;-74
2023/05/14 11:37:51;;;;;;;4.43;1.20;;;31.50;38.90;;;;;;4949438;29;20554;-74
2023/05/14 11:40:20;;;;;;;6.15;1.40;;;31.70;40.20;;;;;;4929694;29;20103;-74
2023/05/14 11:42:50;;;;;;;3.25;1.40;;;32.00;39.00;;;;;;4939016;28;20047;-74
2023/05/14 11:45:26;;;;;;;7.05;1.60;;;31.10;39.30;;;;;;4940901;28;20043;-73
2023/05/14 11:47:54;;;;;;;1.98;1.30;;;29.90;41.20;;;;;;4944657;28;20048;-75
2023/05/14 11:50:21;;;;;;;5.00;1.42;;;29.00;40.20;;;;;;4943774;29;20052;-76
2023/05/14 11:52:49;;;;;;;2.45;1.35;;;27.90;42.00;;;;;;4943209;28;20054;-71
2023/05/14 11:55:17;;;;;;;8.48;7.78;;;27.30;43.20;;;;;;4942825;29;20181;-72
2023/05/14 11:57:46;;;;;;;4.38;1.25;;;26.90;43.10;;;;;;4939744;29;20043;-72
2023/05/14 12:00:20;;;;;;;4.20;1.50;;;26.50;43.80;;;;;;4945033;28;20078;-73
2023/05/14 12:02:49;;;;;;;3.65;1.40;;;26.30;44.70;;;;;;4941639;29;20060;-73
2023/05/14 12:05:17;;;;;;;3.05;1.50;;;25.90;44.80;;;;;;4948891;28;20978;-73
2023/05/14 12:07:45;;;;;;;4.43;1.98;;;25.90;45.30;;;;;;4959392;28;20094;-74
2023/05/14 12:10:13;;;;;;;4.97;1.35;;;26.70;45.80;;;;;;4949302;28;20067;-73
2023/05/14 12:12:40;;;;;;;1.20;1.15;;;29.30;43.80;;;;;;4950223;28;20133;-72
2023/05/14 12:15:15;;;;;;;2.65;1.67;;;32.00;40.70;;;;;;4946622;28;20448;-73
2023/05/14 12:17:43;;;;;;;3.85;1.50;;;33.70;37.50;;;;;;4945522;28;20055;-73
2023/05/14 12:20:12;;;;;;;4.68;1.65;;;34.00;37.10;;;;;;4944672;29;20071;-73
2023/05/14 12:22:42;;;;;;;8.32;1.85;;;32.80;37.60;;;;;;4951396;28;20412;-72
2023/05/14 12:25:13;;;;;;;4.65;1.42;;;32.50;38.00;;;;;;4947482;28;20082;-71
2023/05/14 12:27:41;;;;;;;2.17;1.48;;;32.60;38.10;;;;;;4948994;29;20412;-72
2023/05/14 12:30:12;;;;;;;1.38;1.23;;;31.50;38.70;;;;;;4950362;29;20150;-71
2023/05/14 12:32:40;;;;;;;5.15;1.65;;;30.50;40.30;;;;;;4926540;28;20061;-71
2023/05/14 12:35:08;;;;;;;4.82;1.50;;;29.70;41.10;;;;;;4945860;28;20054;-72
2023/05/14 12:37:38;;;;;;;8.35;2.25;;;29.00;42.10;;;;;;4942673;28;20055;-70
2023/05/14 12:40:08;;;;;;;8.55;1.85;;;28.80;42.90;;;;;;4942401;29;20460;-72
2023/05/14 12:42:35;;;;;;;3.13;1.80;;;29.50;43.70;;;;;;4938750;29;20466;-73
2023/05/14 12:45:07;;;;;;;6.25;1.65;;;31.70;41.20;;;;;;4949053;28;20102;-73
2023/05/14 12:47:35;;;;;;;1.60;1.30;;;33.70;38.90;;;;;;4947010;28;20051;-77
2023/05/14 12:50:05;;;;;;;5.55;1.63;;;35.00;37.20;;;;;;4944052;29;20058;-77
2023/05/14 12:52:34;;;;;;;4.18;1.45;;;36.00;35.90;;;;;;4947003;28;20055;-76